Sheridan, Wyoming
Current Conditions -  °F | °C
As of 3:53 PM on Wednesday 22 Oct 2014 (Local Time) from KSHR Reporting Station
Clear Clear  
Wind Chill: 63°   Ceiling: Unl
Heat Index: 63°   Visibility: 10mi
Dew Point: 25°   Wind: 0mph
Humidity: 24%   Direction: NA
Pressure: 29.98"   Gusts: NA
Location:  44.8°N, 106.95°W
Report Text: KSHR 222153Z AUTO 00000KT 10SM CLR 17/M04 A2998 RMK AO2 SLP140 T01721039 TSNO
Loading
Personal Weather Stations






























Interactive Weather Map
Tropical Storm Tracking
New forecast layout! Learn more

10-Day Weather Forecast

Advertisements
Track Severe Weather on mobile